Terminal Aerodrome Forecast
Issued by NWS Blacksburg, VA

Home | Current Version | Previous Version | Text Only | Print | Product List | Glossary On
Versions: 1 2 3 4 5 6 7 8 9 10 11 12 13 14 15 16 17 18
000
FTUS41 KRNK 241138
TAFBLF
TAF
KBLF 241138Z 2412/2512 12003KT P6SM SCT120
     FM241500 16004KT P6SM SCT120
     FM241800 20008KT P6SM SCT120 BKN250
     FM250000 16006KT P6SM SCT100 BKN250=

USA.gov is the U.S. government's official web portal to all federal, state and local government web resources and services.